Time;durP1;ratioP1;P1;durP2;ratioP2;P2;SDS_P1;SDS_P2;PMS_P1;PMS_P2;Temp;Humidity;BMP_temperature;BMP_pressure;BME280_temperature;BME280_humidity;BME280_pressure;Samples;Min_cycle;Max_cycle;Signal;HPM_P1;HPM_P2
2022/01/12 00:00:52;;;;;;;14.02;5.18;;;;;;;;;;5026585;28;20060;-59
2022/01/12 00:03:19;;;;;;;14.63;5.68;;;;;;;;;;5029881;28;20073;-55
2022/01/12 00:05:45;;;;;;;16.63;6.35;;;;;;;;;;5025856;28;20057;-51
2022/01/12 00:08:12;;;;;;;12.95;5.47;;;;;;;;;;5019162;28;20057;-55
2022/01/12 00:10:41;;;;;;;15.93;6.15;;;;;;;;;;5025919;28;20069;-52
2022/01/12 00:13:07;;;;;;;18.90;5.35;;;;;;;;;;5019342;28;20058;-53
2022/01/12 00:15:33;;;;;;;13.52;5.30;;;;;;;;;;5037410;28;20053;-55
2022/01/12 00:18:01;;;;;;;14.40;5.80;;;;;;;;;;5035834;28;20088;-57
2022/01/12 00:20:27;;;;;;;21.55;6.65;;;;;;;;;;5021836;28;20049;-56
2022/01/12 00:22:54;;;;;;;16.58;6.07;;;;;;;;;;5026342;28;20140;-54
2022/01/12 00:25:30;;;;;;;13.95;5.38;;;;;;;;;;5033663;28;20057;-55
2022/01/12 00:33:27;;;;;;;18.35;6.25;;;;;;;;;;5047478;28;20183;-58
2022/01/12 00:35:55;;;;;;;12.93;5.50;;;;;;;;;;5025917;28;20061;-53
2022/01/12 00:38:23;;;;;;;13.23;4.93;;;;;;;;;;5025564;28;20057;-54
2022/01/12 00:40:53;;;;;;;15.30;5.70;;;;;;;;;;5019661;28;20084;-56
2022/01/12 00:43:22;;;;;;;13.95;5.75;;;;;;;;;;5025979;28;20064;-56
2022/01/12 00:45:48;;;;;;;13.25;5.82;;;;;;;;;;5018890;28;20049;-58
2022/01/12 00:48:17;;;;;;;15.15;6.63;;;;;;;;;;5026326;28;20107;-58
2022/01/12 00:50:44;;;;;;;15.68;6.25;;;;;;;;;;5020865;28;20069;-56
2022/01/12 00:53:11;;;;;;;15.35;5.55;;;;;;;;;;5026384;28;20399;-59
2022/01/12 00:55:38;;;;;;;18.55;6.20;;;;;;;;;;5017297;28;20072;-57
2022/01/12 00:58:06;;;;;;;14.38;6.10;;;;;;;;;;5006367;28;20061;-55
2022/01/12 01:00:35;;;;;;;19.83;6.25;;;;;;;;;;5008422;28;20053;-57
2022/01/12 01:03:01;;;;;;;11.73;4.70;;;;;;;;;;5046824;28;20077;-56
2022/01/12 01:05:31;;;;;;;10.45;4.35;;;;;;;;;;5040520;28;20060;-58
2022/01/12 01:07:59;;;;;;;17.58;6.85;;;;;;;;;;5047803;28;20076;-58
2022/01/12 01:10:36;;;;;;;18.35;6.75;;;;;;;;;;5045515;28;20061;-56
2022/01/12 01:13:03;;;;;;;19.20;7.90;;;;;;;;;;5005738;28;20073;-56
2022/01/12 01:15:51;;;;;;;20.02;7.07;;;;;;;;;;5006104;28;20050;-54
2022/01/12 01:26:33;;;;;;;14.85;4.97;;;;;;;;;;5023658;28;20123;-55
2022/01/12 01:28:59;;;;;;;11.38;5.07;;;;;;;;;;5024944;28;20064;-55
2022/01/12 01:31:30;;;;;;;14.52;6.50;;;;;;;;;;5020349;28;20076;-56
2022/01/12 01:34:05;;;;;;;19.63;6.82;;;;;;;;;;5044685;28;20049;-55
2022/01/12 01:36:39;;;;;;;15.18;5.25;;;;;;;;;;5039633;28;20060;-55
2022/01/12 01:39:06;;;;;;;15.30;5.68;;;;;;;;;;5045135;28;20049;-55
2022/01/12 01:41:32;;;;;;;14.55;6.03;;;;;;;;;;5045107;28;20148;-55
2022/01/12 01:44:30;;;;;;;17.25;6.63;;;;;;;;;;5020229;28;20068;-55
2022/01/12 01:55:09;;;;;;;18.65;7.00;;;;;;;;;;5025786;28;20081;-55
2022/01/12 01:57:36;;;;;;;18.15;7.80;;;;;;;;;;5019868;28;20053;-51
2022/01/12 02:00:05;;;;;;;19.10;6.22;;;;;;;;;;5026416;28;20079;-54
2022/01/12 02:02:31;;;;;;;;;;;;;;;;;;5022081;28;20128;-54
2022/01/12 02:04:59;;;;;;;15.02;5.50;;;;;;;;;;5024153;28;19925;-51
2022/01/12 02:07:29;;;;;;;15.80;6.83;;;;;;;;;;5024880;28;20050;-52
2022/01/12 02:09:55;;;;;;;18.00;6.55;;;;;;;;;;5019179;28;20050;-54
2022/01/12 02:12:25;;;;;;;20.48;7.28;;;;;;;;;;5024909;28;20131;-51
2022/01/12 02:14:52;;;;;;;17.35;6.35;;;;;;;;;;5004479;28;20145;-53
2022/01/12 02:17:24;;;;;;;19.08;7.85;;;;;;;;;;5005709;28;20132;-58
2022/01/12 02:20:07;;;;;;;17.75;6.72;;;;;;;;;;5012255;28;20054;-55
2022/01/12 02:36:30;;;;;;;19.63;8.07;;;;;;;;;;5029641;28;20088;-59
2022/01/12 02:41:43;;;;;;;15.77;6.78;;;;;;;;;;5009030;28;20103;-58
2022/01/12 02:55:08;;;;;;;17.88;6.45;;;;;;;;;;5018588;28;20474;-55
2022/01/12 02:57:36;;;;;;;20.73;8.63;;;;;;;;;;5005831;28;20582;-56
2022/01/12 03:00:07;;;;;;;18.88;7.45;;;;;;;;;;5005511;28;20053;-55
2022/01/12 03:02:36;;;;;;;18.08;7.13;;;;;;;;;;5020946;28;20054;-53
2022/01/12 03:05:22;;;;;;;28.52;9.80;;;;;;;;;;5020516;28;20113;-56
2022/01/12 03:07:49;;;;;;;23.27;9.75;;;;;;;;;;5027174;28;20064;-59
2022/01/12 03:10:17;;;;;;;29.52;9.90;;;;;;;;;;5022231;28;20069;-56
2022/01/12 03:12:45;;;;;;;27.30;9.30;;;;;;;;;;5027143;28;20130;-58
2022/01/12 03:15:11;;;;;;;24.92;8.93;;;;;;;;;;5027629;28;20053;-57
2022/01/12 03:17:38;;;;;;;19.27;8.30;;;;;;;;;;5023831;28;20057;-53
2022/01/12 03:20:06;;;;;;;23.65;8.25;;;;;;;;;;5028128;28;20054;-54
2022/01/12 03:22:32;;;;;;;25.97;9.47;;;;;;;;;;5020031;28;20049;-57
2022/01/12 03:24:59;;;;;;;27.10;7.35;;;;;;;;;;5027333;28;20140;-56
2022/01/12 03:27:29;;;;;;;17.67;7.22;;;;;;;;;;5018325;28;20089;-53
2022/01/12 03:29:56;;;;;;;21.38;7.40;;;;;;;;;;5008115;28;20077;-57
2022/01/12 03:32:30;;;;;;;23.42;7.50;;;;;;;;;;5021365;28;20111;-49
2022/01/12 03:35:07;;;;;;;16.55;6.20;;;;;;;;;;5026051;28;20053;-55
2022/01/12 03:37:42;;;;;;;16.05;6.30;;;;;;;;;;5022906;28;20144;-52
2022/01/12 03:40:10;;;;;;;28.00;9.32;;;;;;;;;;5028177;28;20122;-53
2022/01/12 03:42:38;;;;;;;22.77;8.48;;;;;;;;;;5023326;28;20068;-55
2022/01/12 03:45:05;;;;;;;23.30;8.88;;;;;;;;;;5029124;28;20053;-50
2022/01/12 03:47:31;;;;;;;21.77;8.75;;;;;;;;;;5021738;28;20085;-50
2022/01/12 03:49:58;;;;;;;25.10;9.07;;;;;;;;;;5028101;28;20061;-57
2022/01/12 03:52:25;;;;;;;20.13;7.22;;;;;;;;;;5022796;28;20155;-52
2022/01/12 03:54:51;;;;;;;21.40;8.65;;;;;;;;;;5028136;28;20091;-53
2022/01/12 03:57:19;;;;;;;16.25;6.32;;;;;;;;;;5022771;28;20092;-53
2022/01/12 03:59:46;;;;;;;22.95;8.52;;;;;;;;;;5027774;28;20144;-55
2022/01/12 04:02:13;;;;;;;22.30;8.73;;;;;;;;;;5018231;28;20057;-53
2022/01/12 04:05:03;;;;;;;19.73;8.25;;;;;;;;;;5007472;28;20061;-52
2022/01/12 04:10:10;;;;;;;20.73;7.55;;;;;;;;;;5008178;28;20065;-54
2022/01/12 04:12:36;;;;;;;22.00;8.10;;;;;;;;;;5002513;28;20060;-54
2022/01/12 04:15:04;;;;;;;17.95;6.50;;;;;;;;;;5005994;28;20144;-53
2022/01/12 04:17:31;;;;;;;16.55;6.03;;;;;;;;;;5006546;28;20146;-52
2022/01/12 04:19:59;;;;;;;21.80;8.48;;;;;;;;;;5001553;28;20060;-52
2022/01/12 04:25:10;;;;;;;17.95;6.68;;;;;;;;;;5001667;28;20060;-53
2022/01/12 04:27:37;;;;;;;18.25;6.80;;;;;;;;;;5006900;28;20131;-51
2022/01/12 04:30:06;;;;;;;19.83;7.78;;;;;;;;;;5001647;28;20060;-55
2022/01/12 04:32:35;;;;;;;;;;;;;;;;;;5007033;28;20301;-57
2022/01/12 04:35:02;;;;;;;17.52;6.60;;;;;;;;;;5001128;28;19925;-56
2022/01/12 04:37:29;;;;;;;20.73;7.18;;;;;;;;;;5007737;28;20145;-57
2022/01/12 04:39:55;;;;;;;24.95;8.73;;;;;;;;;;5003481;28;20141;-60
2022/01/12 04:42:21;;;;;;;21.88;8.90;;;;;;;;;;5009609;28;20481;-54
2022/01/12 04:44:49;;;;;;;19.95;7.85;;;;;;;;;;5002199;28;20080;-58
2022/01/12 04:47:30;;;;;;;23.88;9.05;;;;;;;;;;5006513;28;20159;-59
2022/01/12 04:49:57;;;;;;;24.67;9.00;;;;;;;;;;4999495;28;20053;-58
2022/01/12 04:52:24;;;;;;;24.15;9.05;;;;;;;;;;5006551;28;20086;-53
2022/01/12 04:54:50;;;;;;;20.35;8.40;;;;;;;;;;5000461;28;20104;-59
2022/01/12 04:57:17;;;;;;;19.80;7.90;;;;;;;;;;5005951;28;20112;-56
2022/01/12 05:00:00;;;;;;;17.48;7.03;;;;;;;;;;4991356;28;20062;-56
2022/01/12 05:08:12;;;;;;;21.25;7.93;;;;;;;;;;5024780;28;20054;-56
2022/01/12 05:13:23;;;;;;;21.13;7.75;;;;;;;;;;5034188;28;20084;-50
2022/01/12 05:15:50;;;;;;;25.85;8.98;;;;;;;;;;5048828;28;20077;-53
2022/01/12 05:18:20;;;;;;;23.83;8.93;;;;;;;;;;5025234;28;20049;-52
2022/01/12 05:20:47;;;;;;;24.65;9.32;;;;;;;;;;5020595;28;20049;-49
2022/01/12 05:23:14;;;;;;;26.00;9.05;;;;;;;;;;5025113;28;20054;-52
2022/01/12 05:25:41;;;;;;;20.02;7.68;;;;;;;;;;5020219;28;21312;-52
2022/01/12 05:28:08;;;;;;;20.08;8.90;;;;;;;;;;5025050;28;20057;-49
2022/01/12 05:30:35;;;;;;;21.60;8.38;;;;;;;;;;5022085;28;20148;-56
2022/01/12 05:33:01;;;;;;;17.60;7.47;;;;;;;;;;5023481;28;20065;-50
2022/01/12 05:35:32;;;;;;;20.60;8.18;;;;;;;;;;5026215;28;20103;-51
2022/01/12 05:37:59;;;;;;;23.52;8.82;;;;;;;;;;5020557;28;20061;-50
2022/01/12 05:40:26;;;;;;;22.55;7.43;;;;;;;;;;5025271;28;20111;-54
2022/01/12 05:42:54;;;;;;;17.67;7.53;;;;;;;;;;5004965;28;20050;-53
2022/01/12 05:45:21;;;;;;;17.48;7.38;;;;;;;;;;5005573;28;20058;-52
2022/01/12 05:50:30;;;;;;;19.27;7.75;;;;;;;;;;4970848;28;20160;-53
2022/01/12 05:52:57;;;;;;;24.02;7.60;;;;;;;;;;5019964;28;20045;-54
2022/01/12 05:55:23;;;;;;;15.02;6.55;;;;;;;;;;5017167;28;20041;-49
2022/01/12 05:57:50;;;;;;;29.17;11.40;;;;;;;;;;5014506;28;20132;-55
2022/01/12 06:00:17;;;;;;;29.05;10.68;;;;;;;;;;5025382;28;28723;-51
2022/01/12 06:02:44;;;;;;;22.25;9.68;;;;;;;;;;5018202;28;20063;-51
2022/01/12 06:05:11;;;;;;;27.15;9.73;;;;;;;;;;5026710;28;20061;-53
2022/01/12 06:07:48;;;;;;;25.02;10.07;;;;;;;;;;5021793;28;20057;-54
2022/01/12 06:10:17;;;;;;;21.42;8.43;;;;;;;;;;5026385;28;20107;-53
2022/01/12 06:12:44;;;;;;;16.38;7.28;;;;;;;;;;5018931;28;20513;-54
2022/01/12 06:15:10;;;;;;;14.68;6.43;;;;;;;;;;5024340;28;20107;-55
2022/01/12 06:17:38;;;;;;;22.13;8.05;;;;;;;;;;5018132;28;20061;-58
2022/01/12 06:20:06;;;;;;;18.27;7.13;;;;;;;;;;5023016;28;20120;-54
2022/01/12 06:22:32;;;;;;;19.15;7.35;;;;;;;;;;5023466;28;20057;-55
2022/01/12 06:25:00;;;;;;;22.95;7.97;;;;;;;;;;5021523;28;20072;-55
2022/01/12 06:27:31;;;;;;;24.85;8.25;;;;;;;;;;5025112;28;20104;-57
2022/01/12 06:31:10;;;;;;;29.52;10.23;;;;;;;;;;5018586;28;20061;-55
2022/01/12 06:32:51;;;;;;;22.52;8.73;;;;;;;;;;5022945;28;20123;-54
2022/01/12 06:35:18;;;;;;;26.75;9.65;;;;;;;;;;5019675;28;20100;-55
2022/01/12 06:37:45;;;;;;;22.23;8.20;;;;;;;;;;5024335;28;20065;-58
2022/01/12 06:40:12;;;;;;;19.35;8.00;;;;;;;;;;5016119;28;20065;-51
2022/01/12 06:42:40;;;;;;;25.33;9.40;;;;;;;;;;5024892;28;20084;-55
2022/01/12 06:45:07;;;;;;;14.60;6.40;;;;;;;;;;5019712;28;20049;-57
2022/01/12 06:47:34;;;;;;;24.50;7.65;;;;;;;;;;5024397;28;20104;-57
2022/01/12 06:50:01;;;;;;;17.45;6.90;;;;;;;;;;5017698;28;20057;-56
2022/01/12 06:52:27;;;;;;;25.25;7.72;;;;;;;;;;5023042;28;20140;-58
2022/01/12 06:54:54;;;;;;;18.17;7.10;;;;;;;;;;5022316;28;20045;-49
2022/01/12 06:57:22;;;;;;;17.85;6.90;;;;;;;;;;5027882;28;20061;-53
2022/01/12 06:59:50;;;;;;;15.43;6.17;;;;;;;;;;5020688;28;20148;-51
2022/01/12 07:02:17;;;;;;;25.87;8.83;;;;;;;;;;5031874;28;20302;-55
2022/01/12 07:04:43;;;;;;;27.50;8.93;;;;;;;;;;5042932;28;20045;-51
2022/01/12 07:07:12;;;;;;;18.40;7.10;;;;;;;;;;5031651;28;20056;-49
2022/01/12 07:09:38;;;;;;;23.92;7.72;;;;;;;;;;5025474;28;20071;-48
2022/01/12 07:12:06;;;;;;;25.77;9.18;;;;;;;;;;5031275;28;20053;-50
2022/01/12 07:14:32;;;;;;;18.23;6.28;;;;;;;;;;5049533;28;20135;-54
2022/01/12 07:17:01;;;;;;;36.13;9.43;;;;;;;;;;5025655;28;20520;-50
2022/01/12 07:19:28;;;;;;;27.23;7.50;;;;;;;;;;5030776;28;20106;-49
2022/01/12 07:21:54;;;;;;;24.40;6.95;;;;;;;;;;5025545;28;20121;-56
2022/01/12 07:24:21;;;;;;;27.40;8.55;;;;;;;;;;5031250;28;20128;-54
2022/01/12 07:26:49;;;;;;;13.75;5.15;;;;;;;;;;5035649;28;20081;-51
2022/01/12 07:29:15;;;;;;;22.70;6.20;;;;;;;;;;5047487;28;20087;-54
2022/01/12 07:31:42;;;;;;;16.20;5.30;;;;;;;;;;5040030;28;20053;-53
2022/01/12 07:34:10;;;;;;;19.73;6.38;;;;;;;;;;5043294;28;20053;-56
2022/01/12 07:36:38;;;;;;;32.92;8.90;;;;;;;;;;5043302;28;20111;-54
2022/01/12 07:39:04;;;;;;;26.52;7.63;;;;;;;;;;5047517;28;20076;-51
2022/01/12 07:41:31;;;;;;;27.58;8.48;;;;;;;;;;5037537;28;20045;-53
2022/01/12 07:43:57;;;;;;;19.63;6.88;;;;;;;;;;5030230;28;20044;-54
2022/01/12 07:46:24;;;;;;;19.30;6.72;;;;;;;;;;5024615;28;20045;-52
2022/01/12 07:48:51;;;;;;;26.35;7.88;;;;;;;;;;5030270;28;20056;-53
2022/01/12 07:51:19;;;;;;;24.17;7.55;;;;;;;;;;5025079;28;20048;-54
2022/01/12 07:53:46;;;;;;;22.90;7.85;;;;;;;;;;5046213;28;20045;-52
2022/01/12 07:56:13;;;;;;;17.67;6.00;;;;;;;;;;5046455;28;20103;-52
2022/01/12 07:58:39;;;;;;;16.45;6.28;;;;;;;;;;5023852;28;20111;-55
2022/01/12 08:01:07;;;;;;;16.52;6.13;;;;;;;;;;5009915;28;20133;-54
2022/01/12 08:03:34;;;;;;;15.80;6.47;;;;;;;;;;5037144;28;20064;-52
2022/01/12 08:06:01;;;;;;;25.02;8.10;;;;;;;;;;5038722;28;20157;-52
2022/01/12 08:08:29;;;;;;;33.33;7.80;;;;;;;;;;5051539;28;20585;-52
2022/01/12 08:10:56;;;;;;;28.80;8.90;;;;;;;;;;5046218;28;20148;-51
2022/01/12 08:13:22;;;;;;;27.08;8.82;;;;;;;;;;5024470;28;20327;-49
2022/01/12 08:15:49;;;;;;;29.95;8.20;;;;;;;;;;5009933;28;20061;-52
2022/01/12 08:18:15;;;;;;;19.73;6.88;;;;;;;;;;5020123;28;20052;-55
2022/01/12 08:20:43;;;;;;;17.88;5.95;;;;;;;;;;5045763;28;20057;-51
2022/01/12 08:23:10;;;;;;;30.50;8.00;;;;;;;;;;5032922;28;20053;-51
2022/01/12 08:25:40;;;;;;;17.70;6.30;;;;;;;;;;5009472;28;20132;-53
2022/01/12 08:28:07;;;;;;;31.25;9.02;;;;;;;;;;5013037;28;20092;-53
2022/01/12 08:30:34;;;;;;;20.23;6.85;;;;;;;;;;5046580;28;20076;-55
2022/01/12 08:33:01;;;;;;;35.92;8.70;;;;;;;;;;5041483;28;20068;-59
2022/01/12 08:35:29;;;;;;;26.52;7.35;;;;;;;;;;5029869;28;20057;-59
2022/01/12 08:37:57;;;;;;;24.35;6.63;;;;;;;;;;5024892;28;20061;-57
2022/01/12 08:40:24;;;;;;;24.30;8.38;;;;;;;;;;5046103;28;20147;-53
2022/01/12 08:42:52;;;;;;;23.13;7.72;;;;;;;;;;5045467;28;20056;-56
2022/01/12 08:45:19;;;;;;;21.52;6.10;;;;;;;;;;5028683;28;20041;-58
2022/01/12 08:47:47;;;;;;;24.88;7.78;;;;;;;;;;5046976;28;20045;-51
2022/01/12 08:50:14;;;;;;;;;;;;;;;;;;5028653;28;20108;-51
2022/01/12 08:52:44;;;;;;;29.05;7.35;;;;;;;;;;5029452;28;19994;-52
2022/01/12 08:55:11;;;;;;;34.45;7.78;;;;;;;;;;5033901;28;20056;-54
2022/01/12 08:57:37;;;;;;;26.83;8.27;;;;;;;;;;5045876;28;20072;-50
2022/01/12 09:00:07;;;;;;;27.67;7.85;;;;;;;;;;5040730;28;20095;-53
2022/01/12 09:02:33;;;;;;;18.17;5.75;;;;;;;;;;5048290;28;20132;-55
2022/01/12 09:05:00;;;;;;;22.77;7.53;;;;;;;;;;5042213;28;20102;-54
2022/01/12 09:07:27;;;;;;;30.60;8.45;;;;;;;;;;5046717;28;20140;-55
2022/01/12 09:09:53;;;;;;;22.35;7.03;;;;;;;;;;5036463;28;20056;-48
2022/01/12 09:12:19;;;;;;;17.08;5.95;;;;;;;;;;5029020;28;20110;-52
2022/01/12 09:14:46;;;;;;;28.63;7.97;;;;;;;;;;5017979;28;20053;-55
2022/01/12 09:17:19;;;;;;;26.15;7.55;;;;;;;;;;5009313;28;20077;-56
2022/01/12 09:19:46;;;;;;;17.27;5.68;;;;;;;;;;5006392;28;20116;-55
2022/01/12 09:22:13;;;;;;;31.10;9.02;;;;;;;;;;5045182;28;20095;-50
2022/01/12 09:24:39;;;;;;;26.10;7.50;;;;;;;;;;5043296;28;20175;-53
2022/01/12 09:27:07;;;;;;;34.30;8.30;;;;;;;;;;5026086;28;20232;-51
2022/01/12 09:29:34;;;;;;;20.77;6.77;;;;;;;;;;5028430;28;20136;-49
2022/01/12 09:32:00;;;;;;;21.55;6.55;;;;;;;;;;5008571;28;20414;-53
2022/01/12 09:34:28;;;;;;;24.92;6.90;;;;;;;;;;5025315;28;20061;-51
2022/01/12 09:36:55;;;;;;;26.85;8.02;;;;;;;;;;5018185;28;20080;-52
2022/01/12 09:39:22;;;;;;;21.35;6.25;;;;;;;;;;5032112;28;20061;-53
2022/01/12 09:41:49;;;;;;;27.33;7.63;;;;;;;;;;5026597;28;20045;-54
2022/01/12 09:44:17;;;;;;;33.50;8.93;;;;;;;;;;5032190;28;20072;-51
2022/01/12 09:46:46;;;;;;;23.35;7.22;;;;;;;;;;5026176;28;20059;-51
2022/01/12 09:49:12;;;;;;;26.23;7.60;;;;;;;;;;5033743;28;20049;-53
2022/01/12 09:51:40;;;;;;;28.80;10.10;;;;;;;;;;5031743;28;20107;-52
2022/01/12 09:54:07;;;;;;;30.98;8.38;;;;;;;;;;5048782;28;20108;-53
2022/01/12 09:56:36;;;;;;;20.38;6.97;;;;;;;;;;5040976;28;20052;-55
2022/01/12 09:59:02;;;;;;;22.42;6.95;;;;;;;;;;5032706;28;20107;-58
2022/01/12 10:01:30;;;;;;;32.30;8.20;;;;;;;;;;5027455;28;20082;-56
2022/01/12 10:04:10;;;;;;;18.80;5.72;;;;;;;;;;5029525;28;20103;-56
2022/01/12 10:06:38;;;;;;;26.48;7.70;;;;;;;;;;5005541;28;20057;-54
2022/01/12 10:09:06;;;;;;;23.45;7.22;;;;;;;;;;5029983;28;20049;-54
2022/01/12 10:11:33;;;;;;;24.13;7.78;;;;;;;;;;5026324;28;20151;-59
2022/01/12 10:14:00;;;;;;;23.05;6.95;;;;;;;;;;5014957;28;20050;-55
2022/01/12 10:16:27;;;;;;;19.60;6.13;;;;;;;;;;5026548;28;20057;-60
2022/01/12 10:18:55;;;;;;;25.20;7.35;;;;;;;;;;5022865;28;20084;-57
2022/01/12 10:21:32;;;;;;;22.23;7.85;;;;;;;;;;5030317;28;20056;-60
2022/01/12 10:23:59;;;;;;;27.88;8.63;;;;;;;;;;5020995;28;20065;-53
2022/01/12 10:26:38;;;;;;;26.97;8.13;;;;;;;;;;5030166;28;20057;-57
2022/01/12 10:29:05;;;;;;;17.60;6.38;;;;;;;;;;5023026;28;20081;-59
2022/01/12 10:31:42;;;;;;;17.52;6.72;;;;;;;;;;5030833;28;20115;-55
2022/01/12 10:34:09;;;;;;;27.00;8.10;;;;;;;;;;5024692;28;20103;-58
2022/01/12 10:36:40;;;;;;;25.55;8.77;;;;;;;;;;5025713;28;20064;-53
2022/01/12 10:39:07;;;;;;;21.20;6.65;;;;;;;;;;5018905;28;20057;-61
2022/01/12 10:41:35;;;;;;;32.55;8.05;;;;;;;;;;5008846;28;20061;-58
2022/01/12 10:44:02;;;;;;;24.48;7.65;;;;;;;;;;5022474;28;20119;-57
2022/01/12 10:46:31;;;;;;;23.00;7.72;;;;;;;;;;5028187;28;20104;-58
2022/01/12 10:48:58;;;;;;;30.50;9.35;;;;;;;;;;5021642;28;20045;-55
2022/01/12 10:51:26;;;;;;;27.40;8.80;;;;;;;;;;5028887;28;20574;-58
2022/01/12 10:53:54;;;;;;;31.48;8.88;;;;;;;;;;5023202;28;20050;-58
2022/01/12 10:56:21;;;;;;;40.63;8.77;;;;;;;;;;5028297;28;20073;-56
2022/01/12 10:58:50;;;;;;;30.70;7.85;;;;;;;;;;5022168;28;20061;-60
2022/01/12 11:01:18;;;;;;;24.45;7.43;;;;;;;;;;5028187;28;20061;-55
2022/01/12 11:03:45;;;;;;;28.58;7.70;;;;;;;;;;5039700;28;20049;-57
2022/01/12 11:06:11;;;;;;;29.42;7.88;;;;;;;;;;5047900;28;20099;-54
2022/01/12 11:08:39;;;;;;;29.08;7.70;;;;;;;;;;5047457;28;20060;-55
2022/01/12 11:11:06;;;;;;;22.58;6.78;;;;;;;;;;5040325;28;20575;-54
2022/01/12 11:13:33;;;;;;;28.90;6.97;;;;;;;;;;5026615;28;20054;-54
2022/01/12 11:16:01;;;;;;;23.35;6.70;;;;;;;;;;5038527;28;20053;-56
2022/01/12 11:18:29;;;;;;;20.75;7.00;;;;;;;;;;5046831;28;20049;-54
2022/01/12 11:20:59;;;;;;;26.27;7.07;;;;;;;;;;5022976;28;20088;-53
2022/01/12 11:23:33;;;;;;;31.60;7.72;;;;;;;;;;5008244;28;20054;-52
2022/01/12 11:26:01;;;;;;;19.27;6.60;;;;;;;;;;5046836;28;20053;-52
2022/01/12 11:28:27;;;;;;;26.55;7.97;;;;;;;;;;5048228;28;20055;-55
2022/01/12 11:31:03;;;;;;;30.95;8.77;;;;;;;;;;5021368;28;20510;-56
2022/01/12 11:33:36;;;;;;;27.55;7.30;;;;;;;;;;5026255;28;20045;-53
2022/01/12 11:36:04;;;;;;;24.45;7.10;;;;;;;;;;5021599;28;20060;-55
2022/01/12 11:38:32;;;;;;;27.95;8.50;;;;;;;;;;5026833;28;20052;-55
2022/01/12 11:41:09;;;;;;;27.33;7.15;;;;;;;;;;5028592;28;20095;-53
2022/01/12 11:43:42;;;;;;;24.63;6.93;;;;;;;;;;5047034;28;20140;-58
2022/01/12 11:46:11;;;;;;;28.05;7.53;;;;;;;;;;5039871;28;20053;-54
2022/01/12 11:48:41;;;;;;;31.85;7.60;;;;;;;;;;5046411;28;20506;-57
2022/01/12 11:51:08;;;;;;;33.88;9.52;;;;;;;;;;5040518;28;20066;-54
2022/01/12 11:53:43;;;;;;;25.00;8.27;;;;;;;;;;5047204;28;20081;-54
2022/01/12 11:56:13;;;;;;;25.23;8.05;;;;;;;;;;5036734;28;20068;-56
2022/01/12 11:58:56;;;;;;;30.15;7.75;;;;;;;;;;5028791;28;20053;-55
2022/01/12 12:01:25;;;;;;;29.83;7.28;;;;;;;;;;5023878;28;20095;-56
2022/01/12 12:03:58;;;;;;;27.50;7.18;;;;;;;;;;5027596;28;20048;-57
2022/01/12 12:06:25;;;;;;;25.23;6.38;;;;;;;;;;5020916;28;20140;-56
2022/01/12 12:08:59;;;;;;;30.27;7.22;;;;;;;;;;5025893;28;20107;-56
2022/01/12 12:11:27;;;;;;;25.92;7.72;;;;;;;;;;5020186;28;20088;-57
2022/01/12 12:13:54;;;;;;;28.02;7.70;;;;;;;;;;5039573;28;20060;-54
2022/01/12 12:16:22;;;;;;;23.15;7.22;;;;;;;;;;5043352;28;20113;-57
2022/01/12 12:18:50;;;;;;;27.45;7.80;;;;;;;;;;5024111;28;20111;-59
2022/01/12 12:21:17;;;;;;;23.02;6.65;;;;;;;;;;5026391;28;20049;-58
2022/01/12 12:23:43;;;;;;;26.73;7.60;;;;;;;;;;5019592;28;20120;-55
2022/01/12 12:26:11;;;;;;;31.20;8.05;;;;;;;;;;5025838;28;20055;-58
2022/01/12 12:28:37;;;;;;;18.85;6.35;;;;;;;;;;5017304;28;20054;-60
2022/01/12 12:31:06;;;;;;;16.73;5.75;;;;;;;;;;5010218;28;20143;-54
2022/01/12 12:33:34;;;;;;;22.25;7.25;;;;;;;;;;5020282;28;20057;-60
2022/01/12 12:36:01;;;;;;;;;;;;;;;;;;5026476;28;20053;-53
2022/01/12 12:38:29;;;;;;;23.67;5.60;;;;;;;;;;5019673;28;19927;-53
2022/01/12 12:40:57;;;;;;;21.27;7.07;;;;;;;;;;5025505;28;20120;-57
2022/01/12 12:43:26;;;;;;;20.50;6.13;;;;;;;;;;5037667;28;20312;-56
2022/01/12 12:45:54;;;;;;;24.80;7.00;;;;;;;;;;5025860;28;20056;-57
2022/01/12 12:48:22;;;;;;;20.15;5.93;;;;;;;;;;5020467;28;20140;-52
2022/01/12 12:50:54;;;;;;;23.48;7.35;;;;;;;;;;5024515;28;20061;-58
2022/01/12 12:53:20;;;;;;;16.95;6.13;;;;;;;;;;5020644;28;20061;-56
2022/01/12 12:55:48;;;;;;;41.63;9.05;;;;;;;;;;5027527;28;20053;-53
2022/01/12 12:58:16;;;;;;;27.40;8.40;;;;;;;;;;5020824;28;20103;-53
2022/01/12 13:00:43;;;;;;;26.63;6.80;;;;;;;;;;5025371;28;20034;-57
2022/01/12 13:03:11;;;;;;;21.10;6.65;;;;;;;;;;5011813;28;20057;-53
2022/01/12 13:05:41;;;;;;;27.60;7.90;;;;;;;;;;5001600;28;20133;-54
2022/01/12 13:08:09;;;;;;;17.80;6.25;;;;;;;;;;4986399;28;20066;-49
2022/01/12 13:10:36;;;;;;;25.45;7.07;;;;;;;;;;4998797;28;20116;-54
2022/01/12 13:13:05;;;;;;;25.40;7.40;;;;;;;;;;5011981;28;20053;-54
2022/01/12 13:15:33;;;;;;;24.80;7.82;;;;;;;;;;5004071;28;20064;-54
2022/01/12 13:18:01;;;;;;;29.35;8.52;;;;;;;;;;5006406;28;20083;-55
2022/01/12 13:23:17;;;;;;;21.65;7.20;;;;;;;;;;5006294;28;20054;-56
2022/01/12 13:25:44;;;;;;;25.70;7.80;;;;;;;;;;5001504;28;20112;-58
2022/01/12 13:28:12;;;;;;;23.65;7.93;;;;;;;;;;5009185;28;20070;-54
2022/01/12 13:30:47;;;;;;;24.73;7.28;;;;;;;;;;5004283;28;20547;-55
2022/01/12 13:33:14;;;;;;;33.58;8.75;;;;;;;;;;5005363;28;20144;-55
2022/01/12 13:35:41;;;;;;;23.50;7.30;;;;;;;;;;4999557;28;20064;-55
2022/01/12 13:38:10;;;;;;;22.20;7.22;;;;;;;;;;5004832;28;20149;-56
2022/01/12 13:40:37;;;;;;;16.80;5.20;;;;;;;;;;4997005;28;20066;-51
2022/01/12 13:43:04;;;;;;;28.95;7.25;;;;;;;;;;4985618;28;20580;-55
2022/01/12 13:45:38;;;;;;;24.00;7.18;;;;;;;;;;4988697;28;20053;-54
2022/01/12 13:48:12;;;;;;;33.67;7.45;;;;;;;;;;5004945;28;20077;-55
2022/01/12 13:50:40;;;;;;;25.02;7.55;;;;;;;;;;4999703;28;20045;-54
2022/01/12 13:53:07;;;;;;;28.70;7.50;;;;;;;;;;5005169;28;20133;-56
2022/01/12 13:55:33;;;;;;;22.67;7.18;;;;;;;;;;4999528;28;20404;-53
2022/01/12 13:58:04;;;;;;;23.00;8.00;;;;;;;;;;5004719;28;20050;-56
2022/01/12 14:00:32;;;;;;;21.95;7.53;;;;;;;;;;4999752;28;20056;-58
2022/01/12 14:02:59;;;;;;;29.65;7.50;;;;;;;;;;5025774;28;20144;-55
2022/01/12 14:05:34;;;;;;;21.10;7.27;;;;;;;;;;5044563;28;20049;-57
2022/01/12 14:08:04;;;;;;;21.40;7.47;;;;;;;;;;5022153;28;20111;-53
2022/01/12 14:10:31;;;;;;;25.65;7.22;;;;;;;;;;5017602;28;20068;-55
2022/01/12 14:12:58;;;;;;;22.58;6.43;;;;;;;;;;5025017;28;20053;-57
2022/01/12 14:15:25;;;;;;;21.00;6.70;;;;;;;;;;5019470;28;20054;-60
2022/01/12 14:17:53;;;;;;;23.50;7.00;;;;;;;;;;5031039;28;20061;-56
2022/01/12 14:20:28;;;;;;;20.85;6.10;;;;;;;;;;5025263;28;20048;-60
2022/01/12 14:22:55;;;;;;;26.58;6.63;;;;;;;;;;5016949;28;20053;-61
2022/01/12 14:25:23;;;;;;;28.77;8.68;;;;;;;;;;5009850;28;20140;-58
2022/01/12 14:27:52;;;;;;;22.37;6.93;;;;;;;;;;5025412;28;20147;-56
2022/01/12 14:30:19;;;;;;;23.60;6.93;;;;;;;;;;5048521;28;20321;-59
2022/01/12 14:32:47;;;;;;;21.98;6.57;;;;;;;;;;5041367;28;20150;-53
2022/01/12 14:35:15;;;;;;;24.58;7.68;;;;;;;;;;5048979;28;20075;-53
2022/01/12 14:37:43;;;;;;;23.67;7.80;;;;;;;;;;5041849;28;20099;-54
2022/01/12 14:40:11;;;;;;;24.08;7.20;;;;;;;;;;5048314;28;20060;-57
2022/01/12 14:42:42;;;;;;;27.03;6.60;;;;;;;;;;5034281;28;20141;-58
2022/01/12 14:45:09;;;;;;;19.95;6.43;;;;;;;;;;5008630;28;20383;-58
2022/01/12 14:47:36;;;;;;;26.85;7.32;;;;;;;;;;5006481;28;20057;-53
2022/01/12 14:50:03;;;;;;;28.13;7.57;;;;;;;;;;5028026;28;20144;-53
2022/01/12 14:52:29;;;;;;;32.28;7.85;;;;;;;;;;5024477;28;20081;-58
2022/01/12 14:54:57;;;;;;;27.02;6.78;;;;;;;;;;5010187;28;20057;-53
2022/01/12 14:57:24;;;;;;;26.52;6.72;;;;;;;;;;5036194;28;20071;-54
2022/01/12 14:59:51;;;;;;;21.42;6.82;;;;;;;;;;5044083;28;20057;-55
2022/01/12 15:02:18;;;;;;;24.80;7.28;;;;;;;;;;4991853;28;20054;-56
2022/01/12 15:04:45;;;;;;;24.15;7.40;;;;;;;;;;4983112;28;20058;-54
2022/01/12 15:07:11;;;;;;;23.80;6.93;;;;;;;;;;5002528;28;20057;-54
2022/01/12 15:09:38;;;;;;;27.20;6.85;;;;;;;;;;4991087;28;20057;-53
2022/01/12 15:12:11;;;;;;;31.05;7.47;;;;;;;;;;5010327;28;20133;-57
2022/01/12 15:14:46;;;;;;;27.10;8.48;;;;;;;;;;4994693;28;20064;-53
2022/01/12 15:17:13;;;;;;;30.77;6.45;;;;;;;;;;5004700;28;20058;-54
2022/01/12 15:19:39;;;;;;;22.42;6.28;;;;;;;;;;4999614;28;20053;-54
2022/01/12 15:22:06;;;;;;;25.42;6.95;;;;;;;;;;5002746;28;20058;-56
2022/01/12 15:24:32;;;;;;;21.60;5.97;;;;;;;;;;5004927;28;20046;-53
2022/01/12 15:26:59;;;;;;;26.30;7.65;;;;;;;;;;4996783;28;20060;-55
2022/01/12 15:29:27;;;;;;;28.23;7.18;;;;;;;;;;5004877;28;20093;-54
2022/01/12 15:31:53;;;;;;;22.60;7.70;;;;;;;;;;5003432;28;20053;-52
2022/01/12 15:34:20;;;;;;;27.23;8.05;;;;;;;;;;5014230;28;20085;-54
2022/01/12 15:36:47;;;;;;;26.20;7.43;;;;;;;;;;4986898;28;20066;-50
2022/01/12 15:39:14;;;;;;;22.73;6.75;;;;;;;;;;5005007;28;20053;-51
2022/01/12 15:41:41;;;;;;;21.05;6.60;;;;;;;;;;5010423;28;20054;-54
2022/01/12 15:44:07;;;;;;;28.33;7.80;;;;;;;;;;4997507;28;20146;-58
2022/01/12 15:46:35;;;;;;;17.77;5.80;;;;;;;;;;5004815;28;20115;-54